Time;durP1;ratioP1;P1;durP2;ratioP2;P2;SDS_P1;SDS_P2;PMS_P1;PMS_P2;Temp;Humidity;BMP_temperature;BMP_pressure;BME280_temperature;BME280_humidity;BME280_pressure;Samples;Min_cycle;Max_cycle;Signal;HPM_P1;HPM_P2
2021/10/29 00:00:44;;;;;;;19.03;15.60;;;11.20;99.90;;;;;;5068625;28;20659;-79
2021/10/29 00:03:10;;;;;;;15.63;13.90;;;11.20;99.90;;;;;;5063973;28;20172;-79
2021/10/29 00:05:36;;;;;;;17.30;13.57;;;11.20;99.90;;;;;;5064227;28;20180;-79
2021/10/29 00:08:03;;;;;;;16.37;14.47;;;11.20;99.90;;;;;;5051457;28;20693;-79
2021/10/29 00:10:30;;;;;;;20.17;16.30;;;11.20;99.90;;;;;;5051277;28;20578;-79
2021/10/29 00:12:56;;;;;;;16.00;14.00;;;11.20;99.90;;;;;;5034223;28;20184;-78
2021/10/29 00:15:22;;;;;;;15.52;11.05;;;11.20;99.90;;;;;;5056341;28;20196;-79
2021/10/29 00:17:49;;;;;;;16.73;14.63;;;11.20;99.90;;;;;;5033247;28;20188;-79
2021/10/29 00:20:15;;;;;;;19.13;16.02;;;11.10;99.90;;;;;;5033264;28;20563;-79
2021/10/29 00:22:41;;;;;;;21.23;15.45;;;11.10;99.90;;;;;;5053563;28;20161;-79
2021/10/29 00:25:07;;;;;;;15.63;13.17;;;11.10;99.90;;;;;;5037073;28;20586;-79
2021/10/29 00:27:33;;;;;;;18.10;14.93;;;11.10;99.90;;;;;;5054733;28;20196;-78
2021/10/29 00:29:59;;;;;;;17.60;14.87;;;11.00;99.90;;;;;;5054700;28;20180;-79
2021/10/29 00:32:25;;;;;;;18.13;14.05;;;11.00;99.90;;;;;;5036870;28;20227;-78
2021/10/29 00:34:51;;;;;;;16.77;14.50;;;11.00;99.90;;;;;;5054475;28;20558;-78
2021/10/29 00:37:17;;;;;;;17.10;14.73;;;11.00;99.90;;;;;;5054312;28;20591;-78
2021/10/29 00:39:43;;;;;;;17.45;14.15;;;11.00;99.90;;;;;;5054461;28;20180;-79
2021/10/29 00:42:08;;;;;;;19.27;16.37;;;11.00;99.90;;;;;;5054767;28;20165;-78
2021/10/29 00:44:34;;;;;;;17.53;15.73;;;11.00;99.90;;;;;;5036422;28;20172;-78
2021/10/29 00:47:00;;;;;;;16.80;13.43;;;11.00;99.90;;;;;;5036045;28;20239;-79
2021/10/29 00:49:26;;;;;;;15.55;13.70;;;10.90;99.90;;;;;;5056616;28;20180;-78
2021/10/29 00:51:52;;;;;;;14.70;12.60;;;10.90;99.90;;;;;;5055977;28;20177;-78
2021/10/29 00:54:19;;;;;;;17.33;14.40;;;10.90;99.90;;;;;;5040469;28;20621;-78
2021/10/29 00:56:47;;;;;;;15.63;13.50;;;10.90;99.90;;;;;;5036902;28;20612;-78
2021/10/29 00:59:13;;;;;;;18.67;14.25;;;10.90;99.90;;;;;;5036854;28;20258;-78
2021/10/29 01:01:39;;;;;;;16.02;12.43;;;10.90;99.90;;;;;;5037472;28;20548;-78
2021/10/29 01:04:05;;;;;;;14.33;12.40;;;10.90;99.90;;;;;;5056094;28;20162;-78
2021/10/29 01:06:32;;;;;;;15.38;12.43;;;10.80;99.90;;;;;;5056556;28;20603;-78
2021/10/29 01:08:59;;;;;;;15.70;13.32;;;10.80;99.90;;;;;;5057201;28;20261;-79
2021/10/29 01:11:27;;;;;;;17.50;13.82;;;10.80;99.90;;;;;;5038577;28;20180;-78
2021/10/29 01:13:52;;;;;;;13.35;11.63;;;10.80;99.90;;;;;;5056386;28;20194;-78
2021/10/29 01:16:20;;;;;;;15.87;13.60;;;10.80;99.90;;;;;;5055098;28;20209;-78
2021/10/29 01:18:46;;;;;;;18.60;15.10;;;10.80;99.90;;;;;;5054821;28;20571;-78
2021/10/29 01:21:11;;;;;;;16.73;14.00;;;10.80;99.90;;;;;;5054952;28;20192;-78
2021/10/29 01:23:37;;;;;;;18.73;14.33;;;10.70;99.90;;;;;;5055745;28;20568;-78
2021/10/29 01:26:06;;;;;;;14.50;12.00;;;10.70;99.90;;;;;;5055918;28;20532;-78
2021/10/29 01:28:32;;;;;;;12.80;10.95;;;10.70;99.90;;;;;;5056091;28;20552;-78
2021/10/29 01:30:58;;;;;;;19.90;13.90;;;10.70;99.90;;;;;;5058567;28;20252;-78
2021/10/29 01:33:24;;;;;;;17.20;13.17;;;10.70;99.90;;;;;;5054996;28;20238;-78
2021/10/29 01:35:50;;;;;;;16.90;12.47;;;10.70;99.90;;;;;;5054536;28;20562;-78
2021/10/29 01:38:16;;;;;;;12.73;11.43;;;10.70;99.90;;;;;;5056109;28;20189;-78
2021/10/29 01:40:42;;;;;;;13.90;11.70;;;10.80;99.90;;;;;;5055993;28;20667;-78
2021/10/29 01:43:08;;;;;;;12.95;11.60;;;10.80;99.90;;;;;;5056269;28;20596;-78
2021/10/29 01:45:34;;;;;;;14.50;11.40;;;10.80;99.90;;;;;;5037217;28;20570;-78
2021/10/29 01:48:01;;;;;;;13.48;11.80;;;10.80;99.90;;;;;;5036906;28;20646;-78
2021/10/29 01:50:27;;;;;;;14.32;12.77;;;10.80;99.90;;;;;;5054842;28;20170;-78
2021/10/29 01:52:53;;;;;;;13.77;11.70;;;10.80;99.90;;;;;;5054460;28;20692;-78
2021/10/29 01:55:19;;;;;;;16.45;13.13;;;10.90;99.90;;;;;;5054439;28;20212;-78
2021/10/29 01:57:45;;;;;;;12.70;10.40;;;10.90;99.90;;;;;;5054765;28;20235;-78
2021/10/29 02:00:12;;;;;;;14.95;12.52;;;10.90;99.90;;;;;;5055851;28;20567;-78
2021/10/29 02:02:42;;;;;;;17.40;14.80;;;11.00;99.90;;;;;;5055698;28;20549;-78
2021/10/29 02:05:09;;;;;;;16.88;13.93;;;11.00;99.90;;;;;;5055865;28;20175;-78
2021/10/29 02:07:35;;;;;;;13.82;12.32;;;10.90;99.90;;;;;;5060898;28;20181;-78
2021/10/29 02:10:02;;;;;;;18.83;12.98;;;11.00;99.90;;;;;;5054393;28;20172;-78
2021/10/29 02:12:28;;;;;;;17.27;13.40;;;10.90;99.90;;;;;;5053871;28;20644;-78
2021/10/29 02:14:54;;;;;;;17.63;13.80;;;11.00;99.90;;;;;;5054116;28;20284;-79
2021/10/29 02:17:24;;;;;;;14.50;12.37;;;10.90;99.90;;;;;;5053082;28;20551;-79
2021/10/29 02:19:49;;;;;;;16.58;12.95;;;11.00;99.90;;;;;;5036984;28;20176;-79
2021/10/29 02:22:15;;;;;;;13.23;11.60;;;11.00;99.90;;;;;;5055529;28;20181;-79
2021/10/29 02:24:41;;;;;;;15.03;13.00;;;11.00;99.90;;;;;;5055779;28;20173;-79
2021/10/29 02:27:07;;;;;;;15.03;12.10;;;11.10;99.90;;;;;;5053609;28;20264;-79
2021/10/29 02:29:33;;;;;;;18.52;12.32;;;11.10;99.90;;;;;;5036532;28;20641;-79
2021/10/29 02:32:00;;;;;;;15.13;11.50;;;11.10;99.90;;;;;;5036154;28;20176;-79
2021/10/29 02:34:26;;;;;;;13.30;11.15;;;11.10;99.90;;;;;;5035774;28;20180;-79
2021/10/29 02:36:52;;;;;;;14.50;11.80;;;11.10;99.90;;;;;;5053083;28;20196;-79
2021/10/29 02:39:19;;;;;;;16.57;13.93;;;11.10;99.90;;;;;;5035039;28;20611;-79
2021/10/29 02:41:44;;;;;;;16.70;14.05;;;11.10;99.90;;;;;;5053115;28;20935;-79
2021/10/29 02:44:10;;;;;;;18.80;14.00;;;11.10;99.90;;;;;;5055054;28;20165;-79
2021/10/29 02:46:37;;;;;;;22.40;14.87;;;11.10;99.90;;;;;;5052463;28;20201;-79
2021/10/29 02:49:03;;;;;;;16.83;14.35;;;11.10;99.90;;;;;;5052605;28;20188;-79
2021/10/29 02:51:30;;;;;;;22.23;14.93;;;11.10;99.90;;;;;;5018523;28;20173;-79
2021/10/29 02:53:59;;;;;;;21.10;15.63;;;11.10;99.90;;;;;;5034543;28;20169;-79
2021/10/29 02:56:25;;;;;;;16.13;12.82;;;11.10;99.90;;;;;;5052181;28;20196;-79
2021/10/29 02:58:50;;;;;;;21.23;14.95;;;11.10;99.90;;;;;;5052616;28;20161;-79
2021/10/29 03:01:16;;;;;;;17.43;14.23;;;11.10;99.90;;;;;;5052617;28;20281;-79
2021/10/29 03:03:42;;;;;;;20.47;16.00;;;11.10;99.90;;;;;;5052408;28;20161;-79
2021/10/29 03:06:08;;;;;;;22.93;17.07;;;11.10;99.90;;;;;;5052355;28;20165;-79
2021/10/29 03:08:34;;;;;;;23.17;16.33;;;11.10;99.90;;;;;;5052087;28;20169;-79
2021/10/29 03:11:00;;;;;;;24.43;16.90;;;11.10;99.90;;;;;;5052349;28;20606;-79
2021/10/29 03:13:27;;;;;;;21.88;17.50;;;11.10;99.90;;;;;;5052272;28;20599;-79
2021/10/29 03:15:53;;;;;;;19.75;16.10;;;11.10;99.90;;;;;;5034333;28;20897;-79
2021/10/29 03:18:20;;;;;;;21.05;15.13;;;11.10;99.90;;;;;;5052599;28;20197;-79
2021/10/29 03:20:47;;;;;;;23.90;18.05;;;11.10;99.90;;;;;;5054459;28;20172;-78
2021/10/29 03:23:15;;;;;;;22.67;16.83;;;11.10;99.90;;;;;;5052338;28;20169;-79
2021/10/29 03:25:42;;;;;;;26.27;18.17;;;11.10;99.90;;;;;;5052889;28;20680;-79
2021/10/29 03:28:08;;;;;;;23.77;17.38;;;11.10;99.90;;;;;;5052402;28;20200;-79
2021/10/29 03:30:34;;;;;;;23.48;17.45;;;11.10;99.90;;;;;;5051932;28;20268;-79
2021/10/29 03:33:00;;;;;;;25.50;18.73;;;11.10;99.90;;;;;;5051523;28;20176;-79
2021/10/29 03:35:26;;;;;;;23.97;16.87;;;11.10;99.90;;;;;;5051236;28;20208;-79
2021/10/29 03:43:32;;;;;;;25.42;18.20;;;11.00;99.90;;;;;;5052103;28;20225;-79
2021/10/29 03:46:02;;;;;;;28.27;18.80;;;11.10;99.90;;;;;;5016740;28;20509;-78
2021/10/29 03:48:57;;;;;;;25.52;19.23;;;11.00;99.90;;;;;;5051427;28;20181;-79
2021/10/29 03:51:19;;;;;;;24.63;18.20;;;11.00;99.90;;;;;;5032984;28;20184;-79
2021/10/29 03:53:56;;;;;;;24.63;18.02;;;11.00;99.90;;;;;;5051445;28;20195;-79
2021/10/29 03:56:25;;;;;;;24.45;18.15;;;11.00;99.90;;;;;;5051923;28;20204;-79
2021/10/29 03:58:52;;;;;;;26.42;18.65;;;11.00;99.90;;;;;;5041797;28;20169;-79
2021/10/29 04:01:18;;;;;;;27.65;18.67;;;11.00;99.90;;;;;;5055299;28;20181;-79
2021/10/29 04:03:44;;;;;;;23.15;18.20;;;11.00;99.90;;;;;;5055352;28;20256;-79
2021/10/29 04:06:10;;;;;;;27.02;20.52;;;11.00;99.90;;;;;;5054733;28;20260;-80
2021/10/29 04:08:37;;;;;;;29.20;21.17;;;10.90;99.90;;;;;;5020913;28;20174;-79
2021/10/29 04:11:03;;;;;;;25.65;19.52;;;11.00;99.90;;;;;;5055123;28;20539;-79
2021/10/29 04:13:40;;;;;;;31.40;20.85;;;10.90;99.90;;;;;;5055406;28;20201;-79
2021/10/29 04:16:06;;;;;;;25.77;17.42;;;11.00;99.90;;;;;;5055066;28;20200;-79
2021/10/29 04:18:36;;;;;;;26.73;19.43;;;10.90;99.90;;;;;;5055752;28;20629;-79
2021/10/29 04:21:02;;;;;;;24.52;18.77;;;11.00;99.90;;;;;;5055030;28;20567;-79
2021/10/29 04:23:28;;;;;;;28.13;19.63;;;11.00;99.90;;;;;;5021014;28;20161;-79
2021/10/29 04:25:55;;;;;;;25.10;19.30;;;11.00;99.90;;;;;;5054807;28;20626;-79
2021/10/29 04:28:20;;;;;;;30.17;21.45;;;11.00;99.90;;;;;;5037237;28;20207;-79
2021/10/29 04:30:46;;;;;;;25.40;19.03;;;10.90;99.90;;;;;;5036990;28;20176;-79
2021/10/29 04:33:14;;;;;;;26.90;19.45;;;11.00;99.90;;;;;;5037050;28;20173;-79
2021/10/29 04:35:47;;;;;;;30.40;19.90;;;11.00;99.90;;;;;;5040278;28;20200;-79
2021/10/29 04:38:14;;;;;;;26.75;20.10;;;11.00;99.90;;;;;;5029960;28;20674;-79
2021/10/29 04:40:41;;;;;;;26.67;18.85;;;11.00;99.90;;;;;;5053795;28;20164;-79
2021/10/29 04:43:09;;;;;;;30.70;20.92;;;11.00;99.90;;;;;;5054818;28;20197;-79
2021/10/29 04:45:36;;;;;;;26.50;20.85;;;11.00;99.90;;;;;;5036293;28;20183;-79
2021/10/29 04:48:03;;;;;;;27.45;21.33;;;11.00;99.90;;;;;;5037393;28;20200;-79
2021/10/29 04:50:29;;;;;;;28.73;20.58;;;11.10;99.90;;;;;;5054969;28;20197;-79
2021/10/29 04:52:56;;;;;;;24.50;18.95;;;11.00;99.90;;;;;;5055292;28;20185;-79
2021/10/29 04:55:21;;;;;;;24.65;18.52;;;11.00;99.90;;;;;;5036597;28;20196;-78
2021/10/29 04:57:47;;;;;;;24.80;18.13;;;11.10;99.90;;;;;;5037033;28;20187;-79
2021/10/29 05:00:14;;;;;;;22.53;17.30;;;11.10;99.90;;;;;;5055118;28;20176;-79
2021/10/29 05:02:40;;;;;;;27.27;19.08;;;11.10;99.90;;;;;;5036350;28;20169;-79
2021/10/29 05:05:07;;;;;;;25.07;17.93;;;11.10;99.90;;;;;;5053922;28;20506;-79
2021/10/29 05:07:34;;;;;;;27.05;19.23;;;11.10;99.90;;;;;;5035824;28;20603;-79
2021/10/29 05:10:00;;;;;;;25.02;17.67;;;11.20;99.90;;;;;;5054190;28;20192;-79
2021/10/29 05:12:26;;;;;;;25.50;18.65;;;11.10;99.90;;;;;;5057527;28;20177;-79
2021/10/29 05:14:54;;;;;;;23.50;17.20;;;11.20;99.90;;;;;;5054740;28;20242;-79
2021/10/29 05:17:20;;;;;;;27.02;18.30;;;11.20;99.90;;;;;;5054238;28;20599;-80
2021/10/29 05:19:46;;;;;;;26.63;20.10;;;11.20;99.90;;;;;;5054970;28;20165;-80
2021/10/29 05:22:12;;;;;;;25.13;18.90;;;11.20;99.90;;;;;;5055173;28;20200;-80
2021/10/29 05:24:38;;;;;;;22.13;17.10;;;11.20;99.90;;;;;;5055328;28;20259;-79
2021/10/29 05:27:04;;;;;;;19.38;15.13;;;11.20;99.90;;;;;;5054678;28;20599;-80
2021/10/29 05:29:30;;;;;;;22.13;16.35;;;11.20;99.90;;;;;;5004011;28;20255;-80
2021/10/29 05:31:58;;;;;;;24.37;18.30;;;11.20;99.90;;;;;;5055856;28;20223;-80
2021/10/29 05:34:24;;;;;;;21.52;16.08;;;11.20;99.90;;;;;;5037422;28;20567;-80
2021/10/29 05:36:49;;;;;;;22.37;15.83;;;11.20;99.90;;;;;;5054931;28;20271;-80
2021/10/29 05:39:16;;;;;;;19.50;14.90;;;11.30;99.90;;;;;;5054548;28;20541;-80
2021/10/29 05:41:47;;;;;;;21.90;16.42;;;11.20;99.90;;;;;;5021088;28;20165;-80
2021/10/29 05:44:15;;;;;;;21.63;16.45;;;11.30;99.90;;;;;;5035981;28;20245;-80
2021/10/29 05:46:42;;;;;;;20.30;16.08;;;11.30;99.90;;;;;;5055331;28;20201;-80
2021/10/29 05:49:10;;;;;;;25.13;18.20;;;11.30;99.90;;;;;;5056218;28;20169;-80
2021/10/29 05:51:43;;;;;;;21.17;15.15;;;11.30;99.90;;;;;;5038853;28;20184;-80
2021/10/29 05:54:13;;;;;;;21.15;13.82;;;11.30;99.90;;;;;;5053389;28;20180;-80
2021/10/29 05:56:39;;;;;;;18.92;14.00;;;11.30;99.90;;;;;;5034815;28;20197;-80
2021/10/29 05:59:05;;;;;;;18.67;14.63;;;11.30;99.90;;;;;;5045799;28;20173;-80
2021/10/29 06:01:32;;;;;;;20.97;15.50;;;11.30;99.90;;;;;;5044037;28;21259;-80
2021/10/29 06:03:59;;;;;;;19.33;14.65;;;11.30;99.90;;;;;;5028628;28;20599;-80
2021/10/29 06:06:25;;;;;;;19.25;14.40;;;11.30;99.90;;;;;;5044307;28;20276;-80
2021/10/29 06:08:50;;;;;;;17.63;13.87;;;11.30;99.90;;;;;;5035361;28;20586;-80
2021/10/29 06:11:16;;;;;;;17.80;14.67;;;11.30;99.90;;;;;;5053355;28;20571;-80
2021/10/29 06:13:42;;;;;;;18.87;14.50;;;11.30;99.90;;;;;;5052990;28;20572;-80
2021/10/29 06:16:10;;;;;;;18.30;13.57;;;11.30;99.90;;;;;;5052931;28;20200;-80
2021/10/29 06:18:35;;;;;;;16.90;13.02;;;11.30;99.90;;;;;;5052490;28;20592;-80
2021/10/29 06:21:02;;;;;;;19.77;15.20;;;11.30;99.90;;;;;;5053041;28;20169;-80
2021/10/29 06:23:41;;;;;;;18.45;14.48;;;11.30;99.90;;;;;;5053301;28;20173;-80
2021/10/29 06:26:19;;;;;;;17.33;13.15;;;11.30;99.90;;;;;;5054794;28;20181;-80
2021/10/29 06:28:44;;;;;;;17.08;12.60;;;11.30;99.90;;;;;;5055992;28;20645;-79
2021/10/29 06:31:12;;;;;;;19.33;15.80;;;11.30;99.90;;;;;;5035063;28;20237;-79
2021/10/29 06:33:41;;;;;;;19.60;15.02;;;11.30;99.90;;;;;;5052810;28;20169;-79
2021/10/29 06:36:08;;;;;;;18.73;13.65;;;11.30;99.90;;;;;;5053515;28;20196;-80
2021/10/29 06:38:34;;;;;;;16.92;12.93;;;11.30;99.90;;;;;;5055194;28;20488;-80
2021/10/29 06:40:59;;;;;;;15.57;13.00;;;11.30;99.90;;;;;;5056012;28;20172;-80
2021/10/29 06:43:45;;;;;;;17.70;14.47;;;11.30;99.90;;;;;;5055903;28;20173;-79
2021/10/29 06:59:54;;;;;;;16.02;13.10;;;11.30;99.90;;;;;;5063517;28;20192;-74
2021/10/29 07:02:49;;;;;;;16.65;13.63;;;11.30;99.90;;;;;;5051385;28;20176;-75
2021/10/29 07:40:20;;;;;;;14.27;11.35;;;12.20;99.90;;;;;;5071472;28;20193;-75
2021/10/29 07:43:03;;;;;;;11.93;10.47;;;12.20;99.90;;;;;;5053439;28;20519;-75
2021/10/29 07:45:29;;;;;;;14.20;11.93;;;12.30;99.90;;;;;;5053336;28;20168;-75
2021/10/29 07:47:56;;;;;;;13.55;11.00;;;12.30;99.90;;;;;;5071108;28;20174;-75
2021/10/29 07:50:22;;;;;;;13.07;11.05;;;12.40;99.90;;;;;;5053366;28;20212;-75
2021/10/29 07:52:51;;;;;;;15.73;11.68;;;12.50;99.90;;;;;;5071093;28;20530;-75
2021/10/29 07:55:19;;;;;;;13.70;12.10;;;12.50;99.90;;;;;;5071076;28;20192;-75
2021/10/29 07:57:48;;;;;;;16.10;12.07;;;12.60;99.90;;;;;;5053371;28;20571;-75
2021/10/29 08:00:16;;;;;;;15.63;12.70;;;12.60;99.90;;;;;;5071473;28;20195;-75
2021/10/29 08:02:45;;;;;;;14.88;13.27;;;12.70;99.90;;;;;;5041151;28;20176;-75
2021/10/29 08:05:10;;;;;;;14.93;12.35;;;12.70;99.90;;;;;;5071034;28;20225;-75
2021/10/29 08:07:36;;;;;;;13.87;10.07;;;12.80;99.90;;;;;;5071106;28;20179;-75
2021/10/29 08:10:05;;;;;;;12.00;9.73;;;12.80;99.90;;;;;;5053266;28;20192;-74
2021/10/29 08:12:32;;;;;;;11.88;9.85;;;12.90;99.90;;;;;;5070915;28;20528;-75
2021/10/29 08:14:58;;;;;;;13.68;10.38;;;12.90;99.90;;;;;;5052869;28;20668;-75
2021/10/29 08:17:23;;;;;;;14.43;11.60;;;13.00;99.90;;;;;;5071239;28;20196;-75
2021/10/29 08:19:49;;;;;;;12.03;8.87;;;13.00;99.90;;;;;;5053281;28;20598;-75
2021/10/29 08:22:15;;;;;;;14.25;11.25;;;13.10;99.90;;;;;;5071282;28;20161;-75
2021/10/29 08:24:42;;;;;;;13.33;9.80;;;13.10;99.90;;;;;;5071190;28;20176;-75
2021/10/29 08:27:08;;;;;;;14.18;10.50;;;13.10;99.90;;;;;;5053052;28;20676;-75
2021/10/29 08:29:38;;;;;;;14.80;10.60;;;13.10;99.90;;;;;;5053141;28;20295;-75
2021/10/29 08:32:06;;;;;;;15.43;11.30;;;13.20;99.90;;;;;;5071515;28;20571;-75
2021/10/29 08:34:32;;;;;;;11.50;10.30;;;13.20;99.90;;;;;;5053200;28;20246;-75
2021/10/29 08:36:59;;;;;;;13.20;9.67;;;13.40;99.90;;;;;;5052797;28;20571;-75
2021/10/29 08:39:29;;;;;;;14.43;10.80;;;13.60;99.90;;;;;;5074118;28;21001;-75
2021/10/29 08:41:59;;;;;;;11.63;10.17;;;13.80;99.90;;;;;;5053385;28;20563;-75
2021/10/29 08:44:26;;;;;;;10.13;9.10;;;13.90;99.90;;;;;;5075456;28;20609;-74
2021/10/29 08:46:52;;;;;;;10.60;8.30;;;14.10;99.90;;;;;;5075151;28;20566;-74
2021/10/29 08:49:18;;;;;;;11.63;9.53;;;14.40;99.90;;;;;;5074999;28;20671;-74
2021/10/29 08:51:45;;;;;;;11.40;9.70;;;14.70;99.90;;;;;;5075143;28;20623;-75
2021/10/29 08:54:11;;;;;;;9.07;7.90;;;14.90;99.90;;;;;;5056894;28;20219;-74
2021/10/29 08:56:38;;;;;;;12.27;10.13;;;15.30;99.90;;;;;;5056166;28;20618;-75
2021/10/29 08:59:25;;;;;;;9.50;7.67;;;15.80;99.90;;;;;;5056207;28;20616;-75
2021/10/29 09:02:04;;;;;;;10.27;7.90;;;16.20;99.90;;;;;;5074440;28;20566;-74
2021/10/29 09:04:44;;;;;;;11.70;8.60;;;16.60;99.90;;;;;;5056253;28;20949;-75
2021/10/29 09:32:32;;;;;;;8.70;6.40;;;18.40;99.90;;;;;;5039171;28;20990;-75
2021/10/29 09:35:16;;;;;;;7.17;5.30;;;17.90;99.90;;;;;;5054984;28;20618;-75
2021/10/29 09:37:55;;;;;;;7.40;6.37;;;17.60;99.90;;;;;;5073645;28;20976;-74
2021/10/29 09:40:54;;;;;;;6.70;5.33;;;17.20;99.90;;;;;;5058389;28;20617;-75
2021/10/29 09:43:23;;;;;;;9.80;5.83;;;17.00;99.90;;;;;;5055399;28;20623;-75
2021/10/29 09:46:03;;;;;;;8.10;6.50;;;16.70;99.90;;;;;;5072957;28;20582;-75
2021/10/29 09:48:39;;;;;;;7.60;6.47;;;16.60;99.90;;;;;;5073459;28;20574;-75
2021/10/29 09:51:10;;;;;;;8.33;6.33;;;16.40;99.90;;;;;;5073061;28;20585;-75
2021/10/29 09:56:07;;;;;;;6.93;6.10;;;16.10;99.90;;;;;;5054364;28;20626;-75
2021/10/29 09:58:33;;;;;;;7.70;5.70;;;16.00;99.90;;;;;;5055091;28;20175;-75
2021/10/29 10:01:00;;;;;;;8.87;6.50;;;15.90;99.90;;;;;;5072924;28;20563;-75
2021/10/29 10:03:27;;;;;;;7.83;6.93;;;15.90;99.90;;;;;;5038264;28;20675;-75
2021/10/29 10:05:54;;;;;;;8.40;5.73;;;15.90;99.90;;;;;;5072553;28;20616;-75
2021/10/29 10:08:22;;;;;;;5.50;4.90;;;15.90;99.90;;;;;;5072944;28;20566;-74
2021/10/29 10:10:50;;;;;;;5.80;5.20;;;16.00;99.90;;;;;;5072639;28;21037;-75
2021/10/29 10:13:18;;;;;;;7.63;6.20;;;16.10;99.90;;;;;;5072648;28;20586;-75
2021/10/29 10:15:48;;;;;;;7.50;5.90;;;16.20;99.90;;;;;;5072270;28;20699;-75
2021/10/29 10:18:16;;;;;;;10.43;7.33;;;16.30;99.90;;;;;;5054907;28;20694;-74
2021/10/29 10:20:44;;;;;;;8.03;5.33;;;16.30;99.90;;;;;;5054497;28;20594;-75
2021/10/29 10:23:13;;;;;;;6.70;5.37;;;16.40;99.90;;;;;;5054742;28;20659;-74
2021/10/29 10:26:13;;;;;;;5.70;4.43;;;16.60;99.90;;;;;;5054364;28;20570;-76
2021/10/29 10:40:47;;;;;;;4.83;4.33;;;18.90;99.90;;;;;;5072220;28;20586;-76
2021/10/29 10:48:44;;;;;;;4.60;3.90;;;19.00;99.90;;;;;;5072004;28;20597;-75
2021/10/29 10:51:53;;;;;;;4.60;3.03;;;18.90;99.90;;;;;;5072037;28;20585;-75
2021/10/29 11:11:04;;;;;;;5.90;3.97;;;18.40;99.90;;;;;;5071991;28;20598;-75
2021/10/29 11:13:45;;;;;;;4.37;3.40;;;18.30;99.90;;;;;;5071563;28;20567;-75
2021/10/29 11:16:22;;;;;;;4.13;3.00;;;18.40;99.90;;;;;;5071594;28;20617;-76
2021/10/29 11:19:06;;;;;;;4.53;3.00;;;18.40;99.90;;;;;;5071737;28;20989;-75
2021/10/29 11:21:37;;;;;;;6.23;3.40;;;18.40;99.90;;;;;;5071926;28;20647;-75
2021/10/29 11:24:07;;;;;;;4.77;3.13;;;18.50;99.90;;;;;;5071413;28;20624;-75
2021/10/29 11:27:16;;;;;;;3.40;3.10;;;18.50;99.90;;;;;;5054652;28;20571;-76
2021/10/29 11:29:50;;;;;;;2.60;2.07;;;18.50;99.90;;;;;;5056508;28;20687;-76
2021/10/29 11:32:20;;;;;;;4.33;3.20;;;18.60;99.90;;;;;;5053128;28;20611;-75
2021/10/29 11:34:49;;;;;;;3.40;2.70;;;18.70;99.90;;;;;;5071470;28;20559;-75
2021/10/29 11:37:15;;;;;;;3.73;3.03;;;18.60;99.90;;;;;;5053294;28;20921;-75
2021/10/29 11:39:41;;;;;;;6.03;5.07;;;18.70;99.90;;;;;;5071246;28;20586;-75
2021/10/29 11:42:08;;;;;;;3.93;3.30;;;18.70;99.90;;;;;;5053794;28;20567;-75
2021/10/29 11:44:38;;;;;;;4.30;3.83;;;18.70;99.90;;;;;;5056907;28;20599;-74
2021/10/29 11:47:05;;;;;;;3.87;3.13;;;18.70;99.90;;;;;;5054398;28;20597;-76
2021/10/29 11:49:31;;;;;;;3.90;3.23;;;18.80;99.90;;;;;;5071246;28;20640;-75
2021/10/29 11:52:02;;;;;;;4.80;3.17;;;18.90;99.90;;;;;;5071487;28;20570;-75
2021/10/29 11:54:35;;;;;;;3.27;2.13;;;19.00;99.90;;;;;;5038258;28;20670;-75
2021/10/29 11:57:19;;;;;;;3.70;2.60;;;19.10;99.90;;;;;;5071353;28;20555;-75
2021/10/29 12:07:39;;;;;;;4.00;2.97;;;19.30;99.90;;;;;;5071539;28;20554;-75
2021/10/29 12:10:18;;;;;;;4.43;4.03;;;19.30;99.90;;;;;;5053234;28;20605;-75
2021/10/29 12:12:45;;;;;;;4.80;3.17;;;19.40;99.90;;;;;;5053258;28;20623;-75
2021/10/29 12:15:16;;;;;;;6.27;3.37;;;19.40;99.90;;;;;;5070693;28;20618;-75
2021/10/29 12:20:49;;;;;;;5.47;2.80;;;19.40;99.90;;;;;;5075214;28;20609;-75
2021/10/29 12:23:20;;;;;;;3.77;2.50;;;19.40;99.90;;;;;;5059732;28;20594;-75
2021/10/29 12:28:22;;;;;;;8.87;3.40;;;19.60;99.90;;;;;;5075188;28;20574;-76
2021/10/29 13:03:58;;;;;;;5.97;3.87;;;19.30;99.90;;;;;;5057699;28;20572;-79
2021/10/29 13:06:38;;;;;;;6.00;4.30;;;19.30;99.90;;;;;;5040585;28;20674;-79
2021/10/29 13:09:14;;;;;;;5.93;3.77;;;19.30;99.90;;;;;;5058495;28;21153;-80
2021/10/29 13:11:44;;;;;;;7.13;5.33;;;19.30;99.90;;;;;;5057705;28;20697;-80
2021/10/29 13:14:12;;;;;;;5.60;4.37;;;19.30;99.90;;;;;;5058820;28;20634;-79
2021/10/29 13:16:38;;;;;;;5.00;2.67;;;19.40;99.90;;;;;;5061600;28;20638;-79
2021/10/29 13:19:15;;;;;;;3.50;2.93;;;19.50;99.90;;;;;;5057159;28;20568;-79
2021/10/29 13:22:34;;;;;;;4.70;2.47;;;19.50;99.90;;;;;;5057241;28;20196;-79
2021/10/29 13:51:43;;;;;;;3.50;1.80;;;19.70;99.90;;;;;;5068390;28;20598;-79
2021/10/29 14:34:36;;;;;;;3.47;1.97;;;19.90;99.90;;;;;;5034288;28;20200;-80
2021/10/29 14:37:14;;;;;;;4.33;2.00;;;19.80;99.90;;;;;;5072461;28;21132;-79
2021/10/29 14:40:04;;;;;;;2.77;2.27;;;19.80;99.90;;;;;;5072068;28;20654;-79
2021/10/29 14:42:35;;;;;;;3.50;3.20;;;19.80;99.90;;;;;;5072369;28;21161;-79
2021/10/29 14:45:18;;;;;;;2.13;1.77;;;19.80;99.90;;;;;;5072002;28;20577;-79
2021/10/29 15:33:45;;;;;;;8.77;6.50;;;19.40;99.90;;;;;;5053619;28;20630;-79
2021/10/29 15:41:44;;;;;;;2.10;1.53;;;19.30;99.90;;;;;;5070951;28;20578;-78
2021/10/29 15:44:16;;;;;;;4.70;1.60;;;19.30;99.90;;;;;;5076933;28;21118;-79
2021/10/29 15:47:04;;;;;;;3.20;2.43;;;19.20;99.90;;;;;;5063650;28;20579;-78
2021/10/29 15:49:44;;;;;;;3.30;3.00;;;19.20;99.90;;;;;;5071537;28;20666;-78
2021/10/29 15:52:14;;;;;;;3.33;2.70;;;19.10;99.90;;;;;;5069879;28;21181;-79
2021/10/29 15:54:54;;;;;;;4.27;2.70;;;19.10;99.90;;;;;;5053207;28;20567;-78
2021/10/29 15:57:26;;;;;;;3.20;2.10;;;19.00;99.90;;;;;;5070536;28;20574;-78
2021/10/29 16:00:12;;;;;;;2.57;2.03;;;19.00;99.90;;;;;;5071309;28;20661;-78
2021/10/29 16:18:49;;;;;;;5.00;2.20;;;18.50;99.90;;;;;;5071227;28;20909;-79
2021/10/29 16:21:15;;;;;;;7.80;3.40;;;18.40;99.90;;;;;;5076017;28;20657;-79
2021/10/29 16:23:40;;;;;;;3.00;1.80;;;18.30;99.90;;;;;;5071041;28;20176;-79
2021/10/29 16:26:10;;;;;;;4.47;2.00;;;18.30;99.90;;;;;;5052922;28;20578;-79
2021/10/29 16:28:37;;;;;;;2.83;2.20;;;18.30;99.90;;;;;;5070908;28;20172;-79
2021/10/29 16:31:03;;;;;;;5.73;3.77;;;18.20;99.90;;;;;;5053238;28;20563;-79
2021/10/29 16:33:32;;;;;;;4.30;3.90;;;18.20;99.90;;;;;;5070749;28;20590;-79
2021/10/29 16:35:59;;;;;;;4.00;2.90;;;18.10;99.90;;;;;;5070802;28;21306;-79
2021/10/29 16:38:25;;;;;;;4.30;3.00;;;18.00;99.90;;;;;;5069544;28;21136;-79
2021/10/29 16:40:51;;;;;;;5.00;4.50;;;18.00;99.90;;;;;;5075992;28;20570;-81
2021/10/29 16:43:18;;;;;;;7.10;6.10;;;18.00;99.90;;;;;;5079649;28;20594;-81
2021/10/29 16:45:46;;;;;;;10.60;7.70;;;17.90;99.90;;;;;;5080986;28;20571;-81
2021/10/29 16:48:20;;;;;;;14.27;7.77;;;17.90;99.90;;;;;;5081886;28;20570;-81
2021/10/29 16:50:47;;;;;;;4.73;3.90;;;17.90;99.90;;;;;;5081520;28;20561;-81
2021/10/29 16:53:13;;;;;;;4.50;2.80;;;17.90;99.90;;;;;;5081206;28;20676;-81
2021/10/29 16:55:41;;;;;;;5.30;2.97;;;17.80;99.90;;;;;;5078663;28;20626;-80
2021/10/29 16:58:12;;;;;;;3.53;2.47;;;17.80;99.90;;;;;;5076946;28;20578;-81
2021/10/29 17:00:40;;;;;;;2.77;2.50;;;17.80;99.90;;;;;;5082322;28;20574;-81
2021/10/29 17:03:06;;;;;;;5.00;3.03;;;17.70;99.90;;;;;;5081507;28;20598;-81
2021/10/29 17:05:31;;;;;;;7.60;4.00;;;17.80;99.90;;;;;;5085310;28;20578;-82
2021/10/29 17:07:57;;;;;;;8.00;4.60;;;17.80;99.90;;;;;;5068185;28;20574;-81
2021/10/29 17:10:24;;;;;;;3.70;3.13;;;17.70;99.90;;;;;;5087142;28;20164;-81
2021/10/29 17:12:50;;;;;;;5.07;3.67;;;17.70;99.90;;;;;;5051953;28;20292;-80
2021/10/29 17:15:17;;;;;;;5.90;5.13;;;17.70;99.90;;;;;;5085119;28;21053;-80
2021/10/29 17:17:45;;;;;;;6.03;4.50;;;17.70;99.90;;;;;;5083978;28;20640;-81
2021/10/29 17:20:14;;;;;;;6.60;5.70;;;17.60;99.90;;;;;;5083953;28;20570;-79
2021/10/29 17:22:40;;;;;;;5.80;4.93;;;17.60;99.90;;;;;;5076091;28;21106;-79
2021/10/29 17:25:08;;;;;;;6.33;5.13;;;17.60;99.90;;;;;;5075578;28;20609;-79
2021/10/29 17:27:33;;;;;;;5.13;4.10;;;17.60;99.90;;;;;;5075270;28;20567;-79
2021/10/29 17:29:59;;;;;;;5.40;3.57;;;17.60;99.90;;;;;;5074383;28;20574;-78
2021/10/29 17:32:25;;;;;;;4.63;3.13;;;17.60;99.90;;;;;;5076097;28;20195;-79
2021/10/29 17:34:50;;;;;;;4.70;3.57;;;17.60;99.90;;;;;;5076143;28;20176;-78
2021/10/29 17:37:16;;;;;;;8.60;4.90;;;17.60;99.90;;;;;;5077986;28;20520;-78
2021/10/29 17:39:43;;;;;;;8.93;6.57;;;17.60;99.90;;;;;;5078018;28;20168;-78